Wetterdaten: Freitag, 19.02.2021
Datum Zeit Temp. A. Feuchte A. Luftdruck Regen Wind Richtung Richtung Sonnenschein UV Solar Windben
19.02.2021 00:00 7,3 C 86 % 1010,4 hPa 0,0 mm 1,6 km/h (1 Bft) W-SW 248 0 min 0 UV-I 0 W/m 14,5 km/h (3 Bft)
19.02.2021 00:10 7,2 C 86 % 1010,5 hPa 0,0 mm 1,6 km/h (1 Bft) W-SW 248 0 min 0 UV-I 0 W/m 11,3 km/h (2 Bft)
19.02.2021 00:20 7,1 C 87 % 1010,5 hPa 0,0 mm 0,0 km/h (0 Bft) N 0 0 min 0 UV-I 0 W/m 0,0 km/h (0 Bft)
19.02.2021 00:30 6,9 C 87 % 1010,5 hPa 0,3 mm 0,0 km/h (0 Bft) N 0 0 min 0 UV-I 0 W/m 6,4 km/h (2 Bft)
19.02.2021 00:40 6,8 C 88 % 1010,6 hPa 0,0 mm 0,0 km/h (0 Bft) N 0 0 min 0 UV-I 0 W/m 11,3 km/h (2 Bft)
19.02.2021 00:50 6,7 C 88 % 1010,7 hPa 0,0 mm 0,0 km/h (0 Bft) N 0 0 min 0 UV-I 0 W/m 6,4 km/h (2 Bft)
19.02.2021 01:00 6,7 C 88 % 1011,0 hPa 0,0 mm 3,2 km/h (1 Bft) SW 225 0 min 0 UV-I 0 W/m 22,5 km/h (4 Bft)
19.02.2021 01:10 6,7 C 89 % 1011,2 hPa 0,0 mm 3,2 km/h (1 Bft) W-SW 248 0 min 0 UV-I 0 W/m 14,5 km/h (3 Bft)
19.02.2021 01:20 6,7 C 89 % 1011,6 hPa 0,0 mm 4,8 km/h (1 Bft) W-SW 248 0 min 0 UV-I 0 W/m 16,1 km/h (3 Bft)
19.02.2021 01:30 6,6 C 89 % 1011,8 hPa 0,0 mm 6,4 km/h (2 Bft) W-SW 248 0 min 0 UV-I 0 W/m 17,7 km/h (3 Bft)
19.02.2021 01:40 6,6 C 89 % 1011,9 hPa 0,0 mm 3,2 km/h (1 Bft) W-SW 248 0 min 0 UV-I 0 W/m 14,5 km/h (3 Bft)
19.02.2021 01:50 6,6 C 89 % 1012,2 hPa 0,0 mm 1,6 km/h (1 Bft) W 270 0 min 0 UV-I 0 W/m 16,1 km/h (3 Bft)
19.02.2021 02:00 6,6 C 89 % 1012,3 hPa 0,0 mm 1,6 km/h (1 Bft) SW 225 0 min 0 UV-I 0 W/m 11,3 km/h (2 Bft)
19.02.2021 02:10 6,4 C 89 % 1012,7 hPa 0,0 mm 4,8 km/h (1 Bft) W-SW 248 0 min 0 UV-I 0 W/m 22,5 km/h (4 Bft)
19.02.2021 02:20 6,3 C 89 % 1012,7 hPa 0,0 mm 4,8 km/h (1 Bft) W-SW 248 0 min 0 UV-I 0 W/m 17,7 km/h (3 Bft)
19.02.2021 02:30 6,3 C 89 % 1012,9 hPa 0,0 mm 3,2 km/h (1 Bft) W-SW 248 0 min 0 UV-I 0 W/m 14,5 km/h (3 Bft)
19.02.2021 02:40 6,3 C 89 % 1013,0 hPa 0,0 mm 4,8 km/h (1 Bft) W-SW 248 0 min 0 UV-I 0 W/m 14,5 km/h (3 Bft)
19.02.2021 02:50 6,2 C 89 % 1013,1 hPa 0,0 mm 3,2 km/h (1 Bft) W-SW 248 0 min 0 UV-I 0 W/m 11,3 km/h (2 Bft)
19.02.2021 03:00 6,1 C 89 % 1013,3 hPa 0,0 mm 1,6 km/h (1 Bft) W-SW 248 0 min 0 UV-I 0 W/m 9,7 km/h (2 Bft)
19.02.2021 03:10 5,9 C 88 % 1013,3 hPa 0,0 mm 1,6 km/h (1 Bft) S-SW 203 0 min 0 UV-I 0 W/m 6,4 km/h (2 Bft)
19.02.2021 03:20 5,7 C 88 % 1013,5 hPa 0,0 mm 3,2 km/h (1 Bft) S-SW 203 0 min 0 UV-I 0 W/m 11,3 km/h (2 Bft)
19.02.2021 03:30 5,6 C 88 % 1013,7 hPa 0,0 mm 1,6 km/h (1 Bft) SW 225 0 min 0 UV-I 0 W/m 11,3 km/h (2 Bft)
19.02.2021 03:40 5,5 C 88 % 1013,9 hPa 0,0 mm 3,2 km/h (1 Bft) W-SW 248 0 min 0 UV-I 0 W/m 9,7 km/h (2 Bft)
19.02.2021 03:50 5,6 C 88 % 1014,0 hPa 0,0 mm 3,2 km/h (1 Bft) W-SW 248 0 min 0 UV-I 0 W/m 11,3 km/h (2 Bft)
19.02.2021 04:00 5,6 C 88 % 1014,0 hPa 0,0 mm 1,6 km/h (1 Bft) W 270 0 min 0 UV-I 0 W/m 14,5 km/h (3 Bft)
19.02.2021 04:10 5,6 C 88 % 1014,0 hPa 0,0 mm 3,2 km/h (1 Bft) W 270 0 min 0 UV-I 0 W/m 14,5 km/h (3 Bft)
19.02.2021 04:20 5,5 C 88 % 1014,2 hPa 0,0 mm 1,6 km/h (1 Bft) SW 225 0 min 0 UV-I 0 W/m 6,4 km/h (2 Bft)
19.02.2021 04:30 5,4 C 88 % 1014,5 hPa 0,0 mm 0,0 km/h (0 Bft) N 0 0 min 0 UV-I 0 W/m 0,0 km/h (0 Bft)
19.02.2021 04:40 5,3 C 88 % 1014,6 hPa 0,0 mm 1,6 km/h (1 Bft) SW 225 0 min 0 UV-I 0 W/m 9,7 km/h (2 Bft)
19.02.2021 04:50 5,2 C 87 % 1014,7 hPa 0,0 mm 0,0 km/h (0 Bft) N 0 0 min 0 UV-I 0 W/m 6,4 km/h (2 Bft)
19.02.2021 05:00 5,0 C 88 % 1014,8 hPa 0,0 mm 1,6 km/h (1 Bft) SW 225 0 min 0 UV-I 0 W/m 9,7 km/h (2 Bft)
19.02.2021 05:10 4,8 C 88 % 1014,9 hPa 0,0 mm 0,0 km/h (0 Bft) N 0 0 min 0 UV-I 0 W/m 6,4 km/h (2 Bft)
19.02.2021 05:20 4,7 C 88 % 1014,9 hPa 0,0 mm 0,0 km/h (0 Bft) N 0 0 min 0 UV-I 0 W/m 0,0 km/h (0 Bft)
19.02.2021 05:30 4,6 C 88 % 1015,1 hPa 0,0 mm 0,0 km/h (0 Bft) N 0 0 min 0 UV-I 0 W/m 6,4 km/h (2 Bft)
19.02.2021 05:40 4,5 C 88 % 1015,3 hPa 0,0 mm 0,0 km/h (0 Bft) N 0 0 min 0 UV-I 0 W/m 0,0 km/h (0 Bft)
19.02.2021 05:50 4,4 C 88 % 1015,4 hPa 0,0 mm 0,0 km/h (0 Bft) N 0 0 min 0 UV-I 0 W/m 0,0 km/h (0 Bft)
19.02.2021 06:00 4,4 C 88 % 1015,5 hPa 0,0 mm 0,0 km/h (0 Bft) N 0 0 min 0 UV-I 0 W/m 8,0 km/h (2 Bft)
19.02.2021 06:10 4,4 C 88 % 1015,5 hPa 0,0 mm 0,0 km/h (0 Bft) N 0 0 min 0 UV-I 0 W/m 0,0 km/h (0 Bft)
19.02.2021 06:20 4,4 C 89 % 1015,6 hPa 0,0 mm 0,0 km/h (0 Bft) N 0 0 min 0 UV-I 0 W/m 0,0 km/h (0 Bft)
19.02.2021 06:30 4,4 C 89 % 1015,7 hPa 0,0 mm 0,0 km/h (0 Bft) N 0 0 min 0 UV-I 0 W/m 0,0 km/h (0 Bft)
19.02.2021 06:40 4,5 C 89 % 1015,8 hPa 0,0 mm 0,0 km/h (0 Bft) N 0 0 min 0 UV-I 0 W/m 0,0 km/h (0 Bft)
19.02.2021 06:50 4,6 C 89 % 1016,0 hPa 0,0 mm 0,0 km/h (0 Bft) N 0 0 min 0 UV-I 0 W/m 0,0 km/h (0 Bft)
19.02.2021 07:00 4,6 C 89 % 1016,1 hPa 0,0 mm 0,0 km/h (0 Bft) N 0 0 min 0 UV-I 0 W/m 6,4 km/h (2 Bft)
19.02.2021 07:10 4,8 C 89 % 1016,1 hPa 0,0 mm 1,6 km/h (1 Bft) SW 225 0 min 0 UV-I 0 W/m 14,5 km/h (3 Bft)
19.02.2021 07:20 4,9 C 88 % 1016,3 hPa 0,0 mm 1,6 km/h (1 Bft) S-SW 203 0 min 0 UV-I 0 W/m 9,7 km/h (2 Bft)
19.02.2021 07:30 4,9 C 88 % 1016,4 hPa 0,0 mm 0,0 km/h (0 Bft) N 0 0 min 0 UV-I 0 W/m 4,8 km/h (1 Bft)
19.02.2021 07:40 5,0 C 87 % 1016,6 hPa 0,0 mm 0,0 km/h (0 Bft) N 0 0 min 0 UV-I 0 W/m 8,0 km/h (2 Bft)
19.02.2021 07:50 5,0 C 87 % 1016,6 hPa 0,0 mm 0,0 km/h (0 Bft) N 0 0 min 0 UV-I 4 W/m 4,8 km/h (1 Bft)
19.02.2021 08:00 4,9 C 87 % 1016,8 hPa 0,0 mm 0,0 km/h (0 Bft) N 0 0 min 0 UV-I 11 W/m 4,8 km/h (1 Bft)
19.02.2021 08:10 4,8 C 86 % 1017,0 hPa 0,0 mm 0,0 km/h (0 Bft) N 0 0 min 0 UV-I 17 W/m 0,0 km/h (0 Bft)
19.02.2021 08:20 4,7 C 86 % 1017,0 hPa 0,0 mm 0,0 km/h (0 Bft) N 0 0 min 0 UV-I 24 W/m 3,2 km/h (1 Bft)
19.02.2021 08:30 4,6 C 86 % 1017,1 hPa 0,0 mm 0,0 km/h (0 Bft) N 0 0 min 0 UV-I 32 W/m 0,0 km/h (0 Bft)
19.02.2021 08:40 4,5 C 87 % 1017,1 hPa 0,0 mm 0,0 km/h (0 Bft) N 0 0 min 0 UV-I 46 W/m 0,0 km/h (0 Bft)
19.02.2021 08:50 4,4 C 87 % 1017,2 hPa 0,0 mm 0,0 km/h (0 Bft) N 0 10 min 0 UV-I 115 W/m 0,0 km/h (0 Bft)
19.02.2021 09:00 4,6 C 87 % 1017,2 hPa 0,0 mm 0,0 km/h (0 Bft) N 0 10 min 0 UV-I 143 W/m 4,8 km/h (1 Bft)
19.02.2021 09:10 5,1 C 86 % 1017,3 hPa 0,0 mm 0,0 km/h (0 Bft) N 0 10 min 0 UV-I 161 W/m 3,2 km/h (1 Bft)
19.02.2021 09:20 5,6 C 85 % 1017,3 hPa 0,0 mm 0,0 km/h (0 Bft) N 0 10 min 1 UV-I 186 W/m 4,8 km/h (1 Bft)
19.02.2021 09:30 5,9 C 84 % 1017,5 hPa 0,0 mm 0,0 km/h (0 Bft) N 0 10 min 1 UV-I 206 W/m 8,0 km/h (2 Bft)
19.02.2021 09:40 6,3 C 83 % 1017,6 hPa 0,0 mm 1,6 km/h (1 Bft) S-SW 203 10 min 1 UV-I 214 W/m 8,0 km/h (2 Bft)
19.02.2021 09:50 6,6 C 81 % 1017,6 hPa 0,0 mm 1,6 km/h (1 Bft) S-SW 203 10 min 1 UV-I 243 W/m 8,0 km/h (2 Bft)
19.02.2021 10:00 6,8 C 80 % 1017,6 hPa 0,0 mm 1,6 km/h (1 Bft) SW 225 10 min 1 UV-I 251 W/m 8,0 km/h (2 Bft)
19.02.2021 10:10 7,2 C 80 % 1017,7 hPa 0,0 mm 0,0 km/h (0 Bft) N 0 10 min 1 UV-I 291 W/m 8,0 km/h (2 Bft)
19.02.2021 10:20 7,6 C 78 % 1017,6 hPa 0,0 mm 0,0 km/h (0 Bft) N 0 10 min 1 UV-I 306 W/m 4,8 km/h (1 Bft)
19.02.2021 10:30 7,9 C 77 % 1017,7 hPa 0,0 mm 3,2 km/h (1 Bft) SW 225 10 min 1 UV-I 299 W/m 11,3 km/h (2 Bft)
19.02.2021 10:40 8,1 C 76 % 1017,8 hPa 0,0 mm 1,6 km/h (1 Bft) SW 225 10 min 1 UV-I 309 W/m 14,5 km/h (3 Bft)
19.02.2021 10:50 8,2 C 74 % 1017,9 hPa 0,0 mm 4,8 km/h (1 Bft) W-SW 248 10 min 1 UV-I 358 W/m 9,7 km/h (2 Bft)
19.02.2021 11:00 8,5 C 72 % 1017,9 hPa 0,0 mm 3,2 km/h (1 Bft) SW 225 10 min 1 UV-I 383 W/m 11,3 km/h (2 Bft)
19.02.2021 11:10 8,8 C 71 % 1017,9 hPa 0,0 mm 3,2 km/h (1 Bft) S-SW 203 10 min 1 UV-I 374 W/m 12,9 km/h (3 Bft)
19.02.2021 11:20 8,8 C 71 % 1017,8 hPa 0,0 mm 3,2 km/h (1 Bft) S-SW 203 10 min 1 UV-I 400 W/m 9,7 km/h (2 Bft)
19.02.2021 11:30 9,3 C 68 % 1017,7 hPa 0,0 mm 1,6 km/h (1 Bft) SW 225 10 min 1 UV-I 408 W/m 9,7 km/h (2 Bft)
19.02.2021 11:40 9,3 C 69 % 1017,7 hPa 0,0 mm 1,6 km/h (1 Bft) S-SW 203 10 min 1 UV-I 401 W/m 11,3 km/h (2 Bft)
19.02.2021 11:50 9,4 C 68 % 1017,8 hPa 0,0 mm 3,2 km/h (1 Bft) SW 225 10 min 1 UV-I 428 W/m 9,7 km/h (2 Bft)
19.02.2021 12:00 9,8 C 67 % 1017,8 hPa 0,0 mm 1,6 km/h (1 Bft) S-SW 203 10 min 2 UV-I 456 W/m 9,7 km/h (2 Bft)
19.02.2021 12:10 9,9 C 67 % 1017,7 hPa 0,0 mm 3,2 km/h (1 Bft) S-SW 203 10 min 2 UV-I 442 W/m 14,5 km/h (3 Bft)
19.02.2021 12:20 10,2 C 65 % 1017,7 hPa 0,0 mm 3,2 km/h (1 Bft) SW 225 10 min 2 UV-I 464 W/m 9,7 km/h (2 Bft)
19.02.2021 12:30 10,3 C 63 % 1017,6 hPa 0,0 mm 3,2 km/h (1 Bft) W-SW 248 10 min 2 UV-I 485 W/m 14,5 km/h (3 Bft)
19.02.2021 12:40 10,4 C 61 % 1017,6 hPa 0,0 mm 3,2 km/h (1 Bft) SW 225 10 min 2 UV-I 461 W/m 9,7 km/h (2 Bft)
19.02.2021 12:50 10,6 C 61 % 1017,4 hPa 0,0 mm 1,6 km/h (1 Bft) S 180 10 min 2 UV-I 449 W/m 11,3 km/h (2 Bft)
19.02.2021 13:00 10,9 C 63 % 1017,3 hPa 0,0 mm 1,6 km/h (1 Bft) S-SW 203 10 min 2 UV-I 469 W/m 8,0 km/h (2 Bft)
19.02.2021 13:10 11,2 C 61 % 1017,2 hPa 0,0 mm 3,2 km/h (1 Bft) SW 225 10 min 2 UV-I 436 W/m 11,3 km/h (2 Bft)
19.02.2021 13:20 11,3 C 60 % 1017,2 hPa 0,0 mm 3,2 km/h (1 Bft) SW 225 10 min 2 UV-I 423 W/m 11,3 km/h (2 Bft)
19.02.2021 13:30 11,4 C 61 % 1017,2 hPa 0,0 mm 3,2 km/h (1 Bft) S-SW 203 10 min 2 UV-I 429 W/m 9,7 km/h (2 Bft)
19.02.2021 13:40 11,6 C 59 % 1017,2 hPa 0,0 mm 3,2 km/h (1 Bft) SW 225 10 min 2 UV-I 434 W/m 11,3 km/h (2 Bft)
19.02.2021 13:50 11,8 C 58 % 1017,1 hPa 0,0 mm 3,2 km/h (1 Bft) S-SW 203 10 min 2 UV-I 445 W/m 16,1 km/h (3 Bft)
19.02.2021 14:00 11,8 C 60 % 1017,2 hPa 0,0 mm 6,4 km/h (2 Bft) W-SW 248 10 min 2 UV-I 439 W/m 19,3 km/h (3 Bft)
19.02.2021 14:10 11,7 C 60 % 1017,0 hPa 0,0 mm 6,4 km/h (2 Bft) SW 225 10 min 1 UV-I 428 W/m 17,7 km/h (3 Bft)
19.02.2021 14:20 11,7 C 60 % 1017,0 hPa 0,0 mm 4,8 km/h (1 Bft) W-SW 248 10 min 1 UV-I 403 W/m 16,1 km/h (3 Bft)
19.02.2021 14:30 11,8 C 61 % 1016,8 hPa 0,0 mm 3,2 km/h (1 Bft) W-SW 248 10 min 1 UV-I 350 W/m 11,3 km/h (2 Bft)
19.02.2021 14:40 11,6 C 62 % 1016,8 hPa 0,0 mm 1,6 km/h (1 Bft) W-SW 248 10 min 1 UV-I 299 W/m 11,3 km/h (2 Bft)
19.02.2021 14:50 11,6 C 62 % 1016,7 hPa 0,0 mm 1,6 km/h (1 Bft) W-SW 248 10 min 1 UV-I 294 W/m 9,7 km/h (2 Bft)
19.02.2021 15:00 11,4 C 63 % 1016,7 hPa 0,0 mm 1,6 km/h (1 Bft) S-SW 203 10 min 1 UV-I 262 W/m 9,7 km/h (2 Bft)
19.02.2021 15:10 11,4 C 64 % 1016,6 hPa 0,0 mm 1,6 km/h (1 Bft) W 270 10 min 1 UV-I 229 W/m 8,0 km/h (2 Bft)
19.02.2021 15:20 11,3 C 65 % 1016,6 hPa 0,0 mm 0,0 km/h (0 Bft) N 0 10 min 1 UV-I 222 W/m 4,8 km/h (1 Bft)
19.02.2021 15:30 11,3 C 66 % 1016,6 hPa 0,0 mm 0,0 km/h (0 Bft) N 0 10 min 1 UV-I 218 W/m 0,0 km/h (0 Bft)
19.02.2021 15:40 11,4 C 63 % 1016,7 hPa 0,0 mm 1,6 km/h (1 Bft) S-SW 203 10 min 1 UV-I 217 W/m 11,3 km/h (2 Bft)
19.02.2021 15:50 11,3 C 65 % 1016,9 hPa 0,0 mm 3,2 km/h (1 Bft) SW 225 10 min 1 UV-I 208 W/m 12,9 km/h (3 Bft)
19.02.2021 16:00 11,2 C 64 % 1017,0 hPa 0,0 mm 3,2 km/h (1 Bft) S-SW 203 10 min 1 UV-I 162 W/m 17,7 km/h (3 Bft)
19.02.2021 16:10 10,9 C 66 % 1016,9 hPa 0,0 mm 1,6 km/h (1 Bft) S 180 10 min 1 UV-I 146 W/m 16,1 km/h (3 Bft)
19.02.2021 16:20 10,7 C 66 % 1016,9 hPa 0,0 mm 1,6 km/h (1 Bft) S 180 10 min 0 UV-I 131 W/m 11,3 km/h (2 Bft)
19.02.2021 16:30 10,5 C 66 % 1017,0 hPa 0,0 mm 1,6 km/h (1 Bft) S 180 10 min 0 UV-I 100 W/m 16,1 km/h (3 Bft)
19.02.2021 16:40 10,5 C 66 % 1016,8 hPa 0,0 mm 0,0 km/h (0 Bft) N 0 0 min 0 UV-I 67 W/m 8,0 km/h (2 Bft)
19.02.2021 16:50 10,4 C 66 % 1016,7 hPa 0,0 mm 0,0 km/h (0 Bft) N 0 0 min 0 UV-I 50 W/m 8,0 km/h (2 Bft)
19.02.2021 17:00 10,3 C 67 % 1016,6 hPa 0,0 mm 0,0 km/h (0 Bft) N 0 0 min 0 UV-I 36 W/m 6,4 km/h (2 Bft)
19.02.2021 17:10 10,2 C 67 % 1016,6 hPa 0,0 mm 0,0 km/h (0 Bft) N 0 0 min 0 UV-I 29 W/m 0,0 km/h (0 Bft)
19.02.2021 17:20 10,0 C 68 % 1016,7 hPa 0,0 mm 0,0 km/h (0 Bft) N 0 0 min 0 UV-I 22 W/m 0,0 km/h (0 Bft)
19.02.2021 17:30 9,8 C 69 % 1016,6 hPa 0,0 mm 0,0 km/h (0 Bft) N 0 0 min 0 UV-I 13 W/m 3,2 km/h (1 Bft)
19.02.2021 17:40 9,6 C 71 % 1016,6 hPa 0,0 mm 1,6 km/h (1 Bft) O-SO 113 0 min 0 UV-I 5 W/m 8,0 km/h (2 Bft)
19.02.2021 17:50 9,2 C 72 % 1016,6 hPa 0,0 mm 0,0 km/h (0 Bft) N 0 0 min 0 UV-I 0 W/m 6,4 km/h (2 Bft)
19.02.2021 18:00 8,9 C 73 % 1016,6 hPa 0,0 mm 1,6 km/h (1 Bft) SO 135 0 min 0 UV-I 0 W/m 11,3 km/h (2 Bft)
19.02.2021 18:10 8,6 C 74 % 1016,7 hPa 0,0 mm 0,0 km/h (0 Bft) N 0 0 min 0 UV-I 0 W/m 9,7 km/h (2 Bft)
19.02.2021 18:20 8,3 C 75 % 1016,7 hPa 0,0 mm 0,0 km/h (0 Bft) N 0 0 min 0 UV-I 0 W/m 8,0 km/h (2 Bft)
19.02.2021 18:30 8,1 C 76 % 1016,7 hPa 0,0 mm 0,0 km/h (0 Bft) N 0 0 min 0 UV-I 0 W/m 6,4 km/h (2 Bft)
19.02.2021 18:40 7,8 C 77 % 1016,6 hPa 0,0 mm 1,6 km/h (1 Bft) S-SO 158 0 min 0 UV-I 0 W/m 6,4 km/h (2 Bft)
19.02.2021 18:50 7,6 C 78 % 1016,6 hPa 0,0 mm 0,0 km/h (0 Bft) N 0 0 min 0 UV-I 0 W/m 11,3 km/h (2 Bft)
19.02.2021 19:00 7,4 C 78 % 1016,6 hPa 0,0 mm 1,6 km/h (1 Bft) SO 135 0 min 0 UV-I 0 W/m 9,7 km/h (2 Bft)
19.02.2021 19:10 7,4 C 79 % 1016,5 hPa 0,0 mm 0,0 km/h (0 Bft) N 0 0 min 0 UV-I 0 W/m 8,0 km/h (2 Bft)
19.02.2021 19:20 7,3 C 79 % 1016,5 hPa 0,0 mm 0,0 km/h (0 Bft) N 0 0 min 0 UV-I 0 W/m 6,4 km/h (2 Bft)
19.02.2021 19:30 7,3 C 79 % 1016,6 hPa 0,0 mm 0,0 km/h (0 Bft) N 0 0 min 0 UV-I 0 W/m 0,0 km/h (0 Bft)
19.02.2021 19:40 7,2 C 80 % 1016,7 hPa 0,0 mm 0,0 km/h (0 Bft) N 0 0 min 0 UV-I 0 W/m 0,0 km/h (0 Bft)
19.02.2021 19:50 7,2 C 80 % 1016,6 hPa 0,0 mm 0,0 km/h (0 Bft) N 0 0 min 0 UV-I 0 W/m 1,6 km/h (1 Bft)
19.02.2021 20:00 7,2 C 80 % 1016,7 hPa 0,0 mm 0,0 km/h (0 Bft) N 0 0 min 0 UV-I 0 W/m 4,8 km/h (1 Bft)
19.02.2021 20:10 7,2 C 80 % 1016,8 hPa 0,0 mm 0,0 km/h (0 Bft) N 0 0 min 0 UV-I 0 W/m 1,6 km/h (1 Bft)
19.02.2021 20:20 7,2 C 81 % 1016,7 hPa 0,0 mm 0,0 km/h (0 Bft) N 0 0 min 0 UV-I 0 W/m 0,0 km/h (0 Bft)
19.02.2021 20:30 7,2 C 81 % 1016,7 hPa 0,0 mm 0,0 km/h (0 Bft) N 0 0 min 0 UV-I 0 W/m 6,4 km/h (2 Bft)
19.02.2021 20:40 7,2 C 81 % 1016,7 hPa 0,0 mm 0,0 km/h (0 Bft) N 0 0 min 0 UV-I 0 W/m 3,2 km/h (1 Bft)
19.02.2021 20:50 7,2 C 81 % 1016,6 hPa 0,0 mm 1,6 km/h (1 Bft) O-SO 113 0 min 0 UV-I 0 W/m 6,4 km/h (2 Bft)
19.02.2021 21:00 7,3 C 81 % 1016,5 hPa 0,0 mm 1,6 km/h (1 Bft) O 90 0 min 0 UV-I 0 W/m 16,1 km/h (3 Bft)
19.02.2021 21:10 7,3 C 81 % 1016,4 hPa 0,0 mm 0,0 km/h (0 Bft) N 0 0 min 0 UV-I 0 W/m 4,8 km/h (1 Bft)
19.02.2021 21:20 7,3 C 81 % 1016,4 hPa 0,0 mm 1,6 km/h (1 Bft) SO 135 0 min 0 UV-I 0 W/m 6,4 km/h (2 Bft)
19.02.2021 21:30 7,3 C 81 % 1016,5 hPa 0,0 mm 0,0 km/h (0 Bft) N 0 0 min 0 UV-I 0 W/m 6,4 km/h (2 Bft)
19.02.2021 21:40 7,3 C 81 % 1016,5 hPa 0,0 mm 0,0 km/h (0 Bft) N 0 0 min 0 UV-I 0 W/m 6,4 km/h (2 Bft)
19.02.2021 21:50 7,2 C 81 % 1016,5 hPa 0,0 mm 0,0 km/h (0 Bft) N 0 0 min 0 UV-I 0 W/m 4,8 km/h (1 Bft)
19.02.2021 22:00 7,2 C 81 % 1016,4 hPa 0,0 mm 0,0 km/h (0 Bft) N 0 0 min 0 UV-I 0 W/m 0,0 km/h (0 Bft)
19.02.2021 22:10 7,1 C 81 % 1016,4 hPa 0,0 mm 0,0 km/h (0 Bft) N 0 0 min 0 UV-I 0 W/m 0,0 km/h (0 Bft)
19.02.2021 22:20 6,9 C 81 % 1016,3 hPa 0,0 mm 0,0 km/h (0 Bft) N 0 0 min 0 UV-I 0 W/m 0,0 km/h (0 Bft)
19.02.2021 22:30 6,8 C 81 % 1016,3 hPa 0,0 mm 0,0 km/h (0 Bft) N 0 0 min 0 UV-I 0 W/m 0,0 km/h (0 Bft)
19.02.2021 22:40 6,7 C 81 % 1016,3 hPa 0,0 mm 0,0 km/h (0 Bft) N 0 0 min 0 UV-I 0 W/m 0,0 km/h (0 Bft)
19.02.2021 22:50 6,6 C 82 % 1016,3 hPa 0,0 mm 0,0 km/h (0 Bft) N 0 0 min 0 UV-I 0 W/m 0,0 km/h (0 Bft)
19.02.2021 23:00 6,4 C 82 % 1016,4 hPa 0,0 mm 0,0 km/h (0 Bft) N 0 0 min 0 UV-I 0 W/m 0,0 km/h (0 Bft)
19.02.2021 23:10 6,3 C 82 % 1016,3 hPa 0,0 mm 0,0 km/h (0 Bft) N 0 0 min 0 UV-I 0 W/m 0,0 km/h (0 Bft)
19.02.2021 23:20 6,1 C 82 % 1016,3 hPa 0,0 mm 0,0 km/h (0 Bft) N 0 0 min 0 UV-I 0 W/m 0,0 km/h (0 Bft)
19.02.2021 23:30 5,9 C 82 % 1016,2 hPa 0,0 mm 0,0 km/h (0 Bft) N 0 0 min 0 UV-I 0 W/m 0,0 km/h (0 Bft)
19.02.2021 23:40 5,8 C 83 % 1016,3 hPa 0,0 mm 0,0 km/h (0 Bft) N 0 0 min 0 UV-I 0 W/m 0,0 km/h (0 Bft)
19.02.2021 23:50 5,6 C 83 % 1016,3 hPa 0,0 mm 0,0 km/h (0 Bft) N 0 0 min 0 UV-I 0 W/m 0,0 km/h (0 Bft)
_ Min-Zeit 05:50 13:50 00:00 - 00:20 - - - - - 00:20
Minimum _ 4,4 C 58 % 1010,4 hPa - 0,0 km/h (0 Bft) - - - - - 0,0 km/h (0 Bft)
_ Max-Zeit 13:50 01:10 10:50 00:30 01:30 - - 08:50 12:20 12:30 01:00
Maximum _ 11,8 C 89 % 1017,9 hPa 0,3 mm 6,4 km/h
W-SW (2 Bft)
- - 10 min 2 UV-I 485 W/m 22,5 km/h
SW (4 Bft)
Durchschnitt _ 7,5 C 79 % 1015,9 hPa #0,3 mm 1,3 km/h (1 Bft) W-SW - #7:50 h 1 UV-I 256 W/m 7,7 km/h (2 Bft)